sensor_id;sensor_type;location;lat;lon;timestamp;P1;durP1;ratioP1;P2;durP2;ratioP2
64938;SDS011;51453;47.738;7.420;2022-10-12T00:00:06;11.77;;;4.60;;
64938;SDS011;51453;47.738;7.420;2022-10-12T00:02:32;10.80;;;4.40;;
64938;SDS011;51453;47.738;7.420;2022-10-12T00:04:58;13.95;;;5.25;;
64938;SDS011;51453;47.738;7.420;2022-10-12T00:07:24;14.00;;;5.00;;
64938;SDS011;51453;47.738;7.420;2022-10-12T00:09:49;16.58;;;5.32;;
64938;SDS011;51453;47.738;7.420;2022-10-12T00:12:15;12.32;;;4.50;;
64938;SDS011;51453;47.738;7.420;2022-10-12T00:14:41;11.70;;;4.45;;
64938;SDS011;51453;47.738;7.420;2022-10-12T00:17:06;15.40;;;4.50;;
64938;SDS011;51453;47.738;7.420;2022-10-12T00:19:32;13.48;;;3.85;;
64938;SDS011;51453;47.738;7.420;2022-10-12T00:21:58;13.77;;;3.83;;
64938;SDS011;51453;47.738;7.420;2022-10-12T00:24:23;9.80;;;4.10;;
64938;SDS011;51453;47.738;7.420;2022-10-12T00:26:49;15.90;;;4.32;;
64938;SDS011;51453;47.738;7.420;2022-10-12T00:29:15;9.23;;;3.88;;
64938;SDS011;51453;47.738;7.420;2022-10-12T00:31:41;11.80;;;3.80;;
64938;SDS011;51453;47.738;7.420;2022-10-12T00:34:06;10.50;;;3.38;;
64938;SDS011;51453;47.738;7.420;2022-10-12T00:36:34;12.40;;;3.13;;
64938;SDS011;51453;47.738;7.420;2022-10-12T00:39:00;11.82;;;3.13;;
64938;SDS011;51453;47.738;7.420;2022-10-12T00:41:29;13.93;;;3.33;;
64938;SDS011;51453;47.738;7.420;2022-10-12T00:43:57;13.25;;;3.70;;
64938;SDS011;51453;47.738;7.420;2022-10-12T00:51:46;10.73;;;3.15;;
64938;SDS011;51453;47.738;7.420;2022-10-12T00:54:21;10.68;;;3.25;;
64938;SDS011;51453;47.738;7.420;2022-10-12T00:56:54;12.40;;;3.67;;
64938;SDS011;51453;47.738;7.420;2022-10-12T00:59:27;10.02;;;3.50;;
64938;SDS011;51453;47.738;7.420;2022-10-12T01:01:57;11.82;;;3.20;;
64938;SDS011;51453;47.738;7.420;2022-10-12T01:04:23;10.50;;;3.10;;
64938;SDS011;51453;47.738;7.420;2022-10-12T01:06:49;12.45;;;3.78;;
64938;SDS011;51453;47.738;7.420;2022-10-12T01:09:15;10.52;;;2.70;;
64938;SDS011;51453;47.738;7.420;2022-10-12T01:11:41;11.80;;;3.10;;
64938;SDS011;51453;47.738;7.420;2022-10-12T01:14:07;12.73;;;3.15;;
64938;SDS011;51453;47.738;7.420;2022-10-12T01:22:10;15.00;;;3.05;;
64938;SDS011;51453;47.738;7.420;2022-10-12T01:40:23;11.40;;;2.90;;
64938;SDS011;51453;47.738;7.420;2022-10-12T01:42:55;10.55;;;3.30;;
64938;SDS011;51453;47.738;7.420;2022-10-12T01:45:22;11.38;;;3.38;;
64938;SDS011;51453;47.738;7.420;2022-10-12T01:47:51;7.13;;;3.00;;
64938;SDS011;51453;47.738;7.420;2022-10-12T01:50:19;11.68;;;3.17;;
64938;SDS011;51453;47.738;7.420;2022-10-12T01:52:57;11.85;;;3.58;;
64938;SDS011;51453;47.738;7.420;2022-10-12T01:55:28;11.40;;;3.10;;
64938;SDS011;51453;47.738;7.420;2022-10-12T02:01:15;13.30;;;3.75;;
64938;SDS011;51453;47.738;7.420;2022-10-12T02:06:27;9.65;;;3.65;;
64938;SDS011;51453;47.738;7.420;2022-10-12T02:09:00;12.02;;;3.90;;
64938;SDS011;51453;47.738;7.420;2022-10-12T02:11:31;13.13;;;4.03;;
64938;SDS011;51453;47.738;7.420;2022-10-12T02:14:17;14.43;;;4.47;;
64938;SDS011;51453;47.738;7.420;2022-10-12T02:16:50;7.47;;;3.47;;
64938;SDS011;51453;47.738;7.420;2022-10-12T02:19:21;14.68;;;4.13;;
64938;SDS011;51453;47.738;7.420;2022-10-12T02:21:50;12.00;;;4.28;;
64938;SDS011;51453;47.738;7.420;2022-10-12T02:24:19;11.95;;;4.82;;
64938;SDS011;51453;47.738;7.420;2022-10-12T02:26:47;10.38;;;4.00;;
64938;SDS011;51453;47.738;7.420;2022-10-12T02:29:18;12.98;;;4.28;;
64938;SDS011;51453;47.738;7.420;2022-10-12T02:40:01;11.52;;;3.67;;
64938;SDS011;51453;47.738;7.420;2022-10-12T02:42:45;13.63;;;4.25;;
64938;SDS011;51453;47.738;7.420;2022-10-12T02:45:15;9.63;;;3.90;;
64938;SDS011;51453;47.738;7.420;2022-10-12T02:47:43;16.17;;;4.47;;
64938;SDS011;51453;47.738;7.420;2022-10-12T02:50:12;12.85;;;4.45;;
64938;SDS011;51453;47.738;7.420;2022-10-12T02:52:39;11.45;;;4.32;;
64938;SDS011;51453;47.738;7.420;2022-10-12T02:55:05;13.00;;;4.10;;
64938;SDS011;51453;47.738;7.420;2022-10-12T02:57:31;11.57;;;4.20;;
64938;SDS011;51453;47.738;7.420;2022-10-12T02:59:57;14.15;;;5.25;;
64938;SDS011;51453;47.738;7.420;2022-10-12T03:02:22;11.63;;;4.32;;
64938;SDS011;51453;47.738;7.420;2022-10-12T03:04:48;13.07;;;4.28;;
64938;SDS011;51453;47.738;7.420;2022-10-12T03:07:14;12.48;;;3.75;;
64938;SDS011;51453;47.738;7.420;2022-10-12T03:09:39;11.55;;;4.20;;
64938;SDS011;51453;47.738;7.420;2022-10-12T03:12:05;9.82;;;4.20;;
64938;SDS011;51453;47.738;7.420;2022-10-12T03:14:30;16.13;;;4.70;;
64938;SDS011;51453;47.738;7.420;2022-10-12T03:16:59;12.88;;;4.20;;
64938;SDS011;51453;47.738;7.420;2022-10-12T03:19:25;13.07;;;4.03;;
64938;SDS011;51453;47.738;7.420;2022-10-12T03:21:50;16.38;;;4.28;;
64938;SDS011;51453;47.738;7.420;2022-10-12T03:24:16;10.00;;;3.60;;
64938;SDS011;51453;47.738;7.420;2022-10-12T03:26:41;13.10;;;4.15;;
64938;SDS011;51453;47.738;7.420;2022-10-12T03:29:07;14.75;;;4.68;;
64938;SDS011;51453;47.738;7.420;2022-10-12T03:31:33;14.35;;;4.47;;
64938;SDS011;51453;47.738;7.420;2022-10-12T03:33:59;13.52;;;4.75;;
64938;SDS011;51453;47.738;7.420;2022-10-12T03:36:24;18.17;;;4.53;;
64938;SDS011;51453;47.738;7.420;2022-10-12T03:38:50;9.77;;;4.47;;
64938;SDS011;51453;47.738;7.420;2022-10-12T03:41:16;14.00;;;4.55;;
64938;SDS011;51453;47.738;7.420;2022-10-12T03:43:42;9.63;;;3.70;;
64938;SDS011;51453;47.738;7.420;2022-10-12T03:46:07;11.40;;;3.85;;
64938;SDS011;51453;47.738;7.420;2022-10-12T03:48:33;12.40;;;4.18;;
64938;SDS011;51453;47.738;7.420;2022-10-12T03:50:59;14.45;;;4.45;;
64938;SDS011;51453;47.738;7.420;2022-10-12T03:53:24;12.07;;;4.38;;
64938;SDS011;51453;47.738;7.420;2022-10-12T03:55:50;11.48;;;3.97;;
64938;SDS011;51453;47.738;7.420;2022-10-12T03:58:19;13.43;;;4.55;;
64938;SDS011;51453;47.738;7.420;2022-10-12T04:00:44;10.57;;;3.63;;
64938;SDS011;51453;47.738;7.420;2022-10-12T04:03:10;12.13;;;3.85;;
64938;SDS011;51453;47.738;7.420;2022-10-12T04:05:36;12.57;;;3.97;;
64938;SDS011;51453;47.738;7.420;2022-10-12T04:08:03;9.35;;;3.83;;
64938;SDS011;51453;47.738;7.420;2022-10-12T04:10:28;13.95;;;4.20;;
64938;SDS011;51453;47.738;7.420;2022-10-12T04:12:55;11.25;;;3.92;;
64938;SDS011;51453;47.738;7.420;2022-10-12T04:15:21;12.00;;;4.50;;
64938;SDS011;51453;47.738;7.420;2022-10-12T04:17:47;10.52;;;3.90;;
64938;SDS011;51453;47.738;7.420;2022-10-12T04:20:12;11.52;;;4.03;;
64938;SDS011;51453;47.738;7.420;2022-10-12T04:22:38;15.25;;;4.70;;
64938;SDS011;51453;47.738;7.420;2022-10-12T04:25:04;10.48;;;4.35;;
64938;SDS011;51453;47.738;7.420;2022-10-12T04:27:30;14.75;;;4.57;;
64938;SDS011;51453;47.738;7.420;2022-10-12T04:29:56;13.40;;;5.28;;
64938;SDS011;51453;47.738;7.420;2022-10-12T04:32:21;16.67;;;5.10;;
64938;SDS011;51453;47.738;7.420;2022-10-12T04:34:47;15.20;;;4.38;;
64938;SDS011;51453;47.738;7.420;2022-10-12T04:37:13;14.10;;;4.30;;
64938;SDS011;51453;47.738;7.420;2022-10-12T04:39:38;14.32;;;4.57;;
64938;SDS011;51453;47.738;7.420;2022-10-12T04:42:04;14.05;;;4.65;;
64938;SDS011;51453;47.738;7.420;2022-10-12T04:44:31;14.77;;;4.57;;
64938;SDS011;51453;47.738;7.420;2022-10-12T04:46:57;10.48;;;4.30;;
64938;SDS011;51453;47.738;7.420;2022-10-12T04:49:23;11.48;;;4.50;;
64938;SDS011;51453;47.738;7.420;2022-10-12T04:51:52;14.15;;;4.80;;
64938;SDS011;51453;47.738;7.420;2022-10-12T04:54:17;12.38;;;4.78;;
64938;SDS011;51453;47.738;7.420;2022-10-12T04:56:43;14.65;;;5.00;;
64938;SDS011;51453;47.738;7.420;2022-10-12T04:59:09;16.92;;;5.53;;
64938;SDS011;51453;47.738;7.420;2022-10-12T05:01:34;12.77;;;5.32;;
64938;SDS011;51453;47.738;7.420;2022-10-12T05:04:00;10.50;;;5.20;;
64938;SDS011;51453;47.738;7.420;2022-10-12T05:06:26;8.38;;;4.57;;
64938;SDS011;51453;47.738;7.420;2022-10-12T05:08:51;11.35;;;5.18;;
64938;SDS011;51453;47.738;7.420;2022-10-12T05:11:17;15.18;;;5.07;;
64938;SDS011;51453;47.738;7.420;2022-10-12T05:13:43;14.80;;;5.10;;
64938;SDS011;51453;47.738;7.420;2022-10-12T05:16:08;15.82;;;4.55;;
64938;SDS011;51453;47.738;7.420;2022-10-12T05:18:34;13.35;;;4.90;;
64938;SDS011;51453;47.738;7.420;2022-10-12T05:21:00;15.55;;;5.30;;
64938;SDS011;51453;47.738;7.420;2022-10-12T05:23:25;12.20;;;5.05;;
64938;SDS011;51453;47.738;7.420;2022-10-12T05:25:53;13.68;;;5.53;;
64938;SDS011;51453;47.738;7.420;2022-10-12T05:28:21;17.17;;;5.22;;
64938;SDS011;51453;47.738;7.420;2022-10-12T05:30:48;10.35;;;5.28;;
64938;SDS011;51453;47.738;7.420;2022-10-12T05:33:14;12.05;;;5.10;;
64938;SDS011;51453;47.738;7.420;2022-10-12T05:35:40;10.40;;;5.90;;
64938;SDS011;51453;47.738;7.420;2022-10-12T05:38:06;17.67;;;6.10;;
64938;SDS011;51453;47.738;7.420;2022-10-12T05:40:31;18.77;;;6.18;;
64938;SDS011;51453;47.738;7.420;2022-10-12T05:42:57;18.05;;;6.65;;
64938;SDS011;51453;47.738;7.420;2022-10-12T05:45:23;20.35;;;6.75;;
64938;SDS011;51453;47.738;7.420;2022-10-12T05:47:48;21.30;;;6.93;;
64938;SDS011;51453;47.738;7.420;2022-10-12T05:50:14;16.63;;;6.43;;
64938;SDS011;51453;47.738;7.420;2022-10-12T05:52:40;16.88;;;6.05;;
64938;SDS011;51453;47.738;7.420;2022-10-12T05:55:06;20.17;;;5.72;;
64938;SDS011;51453;47.738;7.420;2022-10-12T05:57:31;21.25;;;7.43;;
64938;SDS011;51453;47.738;7.420;2022-10-12T05:59:57;16.20;;;6.85;;
64938;SDS011;51453;47.738;7.420;2022-10-12T06:02:23;20.30;;;7.13;;
64938;SDS011;51453;47.738;7.420;2022-10-12T06:04:48;14.23;;;6.50;;
64938;SDS011;51453;47.738;7.420;2022-10-12T06:07:14;20.38;;;6.50;;
64938;SDS011;51453;47.738;7.420;2022-10-12T06:09:40;17.20;;;6.43;;
64938;SDS011;51453;47.738;7.420;2022-10-12T06:12:06;19.42;;;7.28;;
64938;SDS011;51453;47.738;7.420;2022-10-12T06:14:33;17.35;;;7.13;;
64938;SDS011;51453;47.738;7.420;2022-10-12T06:16:59;17.30;;;7.22;;
64938;SDS011;51453;47.738;7.420;2022-10-12T06:19:25;25.92;;;6.65;;
64938;SDS011;51453;47.738;7.420;2022-10-12T06:21:50;17.35;;;6.25;;
64938;SDS011;51453;47.738;7.420;2022-10-12T06:24:16;21.45;;;6.82;;
64938;SDS011;51453;47.738;7.420;2022-10-12T06:26:41;20.27;;;6.25;;
64938;SDS011;51453;47.738;7.420;2022-10-12T06:29:07;22.08;;;6.85;;
64938;SDS011;51453;47.738;7.420;2022-10-12T06:31:33;17.33;;;6.50;;
64938;SDS011;51453;47.738;7.420;2022-10-12T06:33:58;20.08;;;6.88;;
64938;SDS011;51453;47.738;7.420;2022-10-12T06:36:24;31.17;;;7.03;;
64938;SDS011;51453;47.738;7.420;2022-10-12T06:38:50;18.38;;;7.30;;
64938;SDS011;51453;47.738;7.420;2022-10-12T06:41:16;27.60;;;7.72;;
64938;SDS011;51453;47.738;7.420;2022-10-12T06:43:41;19.50;;;7.85;;
64938;SDS011;51453;47.738;7.420;2022-10-12T06:46:07;23.35;;;7.95;;
64938;SDS011;51453;47.738;7.420;2022-10-12T06:48:33;21.25;;;8.63;;
64938;SDS011;51453;47.738;7.420;2022-10-12T06:50:59;26.02;;;9.45;;
64938;SDS011;51453;47.738;7.420;2022-10-12T06:53:24;20.48;;;8.65;;
64938;SDS011;51453;47.738;7.420;2022-10-12T06:55:54;21.20;;;8.50;;
64938;SDS011;51453;47.738;7.420;2022-10-12T06:58:20;20.17;;;8.75;;
64938;SDS011;51453;47.738;7.420;2022-10-12T07:00:46;23.05;;;9.85;;
64938;SDS011;51453;47.738;7.420;2022-10-12T07:03:12;19.20;;;8.52;;
64938;SDS011;51453;47.738;7.420;2022-10-12T07:05:38;27.38;;;9.88;;
64938;SDS011;51453;47.738;7.420;2022-10-12T07:08:04;22.00;;;9.50;;
64938;SDS011;51453;47.738;7.420;2022-10-12T07:10:29;20.92;;;8.90;;
64938;SDS011;51453;47.738;7.420;2022-10-12T07:12:55;17.38;;;8.43;;
64938;SDS011;51453;47.738;7.420;2022-10-12T07:15:21;23.85;;;9.25;;
64938;SDS011;51453;47.738;7.420;2022-10-12T07:17:46;23.90;;;9.77;;
64938;SDS011;51453;47.738;7.420;2022-10-12T07:20:12;23.65;;;10.05;;
64938;SDS011;51453;47.738;7.420;2022-10-12T07:22:38;25.13;;;10.00;;
64938;SDS011;51453;47.738;7.420;2022-10-12T07:25:03;24.38;;;9.45;;
64938;SDS011;51453;47.738;7.420;2022-10-12T07:27:29;23.45;;;10.52;;
64938;SDS011;51453;47.738;7.420;2022-10-12T07:29:55;18.77;;;8.90;;
64938;SDS011;51453;47.738;7.420;2022-10-12T07:32:21;28.10;;;10.35;;
64938;SDS011;51453;47.738;7.420;2022-10-12T07:34:47;25.90;;;10.18;;
64938;SDS011;51453;47.738;7.420;2022-10-12T07:37:12;22.67;;;10.18;;
64938;SDS011;51453;47.738;7.420;2022-10-12T07:39:39;25.38;;;9.95;;
64938;SDS011;51453;47.738;7.420;2022-10-12T07:42:05;25.13;;;10.30;;
64938;SDS011;51453;47.738;7.420;2022-10-12T07:44:31;29.17;;;10.43;;
64938;SDS011;51453;47.738;7.420;2022-10-12T07:46:57;24.85;;;10.55;;
64938;SDS011;51453;47.738;7.420;2022-10-12T07:49:23;29.70;;;10.50;;
64938;SDS011;51453;47.738;7.420;2022-10-12T07:51:48;23.58;;;9.35;;
64938;SDS011;51453;47.738;7.420;2022-10-12T07:54:14;26.50;;;9.55;;
64938;SDS011;51453;47.738;7.420;2022-10-12T07:56:40;29.17;;;9.60;;
64938;SDS011;51453;47.738;7.420;2022-10-12T07:59:06;26.75;;;11.13;;
64938;SDS011;51453;47.738;7.420;2022-10-12T08:01:32;32.75;;;11.00;;
64938;SDS011;51453;47.738;7.420;2022-10-12T08:03:58;27.20;;;10.80;;
64938;SDS011;51453;47.738;7.420;2022-10-12T08:06:25;30.35;;;11.05;;
64938;SDS011;51453;47.738;7.420;2022-10-12T08:08:53;23.02;;;11.00;;
64938;SDS011;51453;47.738;7.420;2022-10-12T08:11:19;39.35;;;11.73;;
64938;SDS011;51453;47.738;7.420;2022-10-12T08:13:46;26.38;;;10.23;;
64938;SDS011;51453;47.738;7.420;2022-10-12T08:16:16;25.63;;;10.63;;
64938;SDS011;51453;47.738;7.420;2022-10-12T08:18:44;38.08;;;12.93;;
64938;SDS011;51453;47.738;7.420;2022-10-12T08:21:11;30.67;;;12.93;;
64938;SDS011;51453;47.738;7.420;2022-10-12T08:23:38;37.67;;;12.75;;
64938;SDS011;51453;47.738;7.420;2022-10-12T08:26:04;33.60;;;12.65;;
64938;SDS011;51453;47.738;7.420;2022-10-12T08:28:31;36.67;;;13.45;;
64938;SDS011;51453;47.738;7.420;2022-10-12T08:30:57;38.63;;;13.73;;
64938;SDS011;51453;47.738;7.420;2022-10-12T08:33:22;32.83;;;13.40;;
64938;SDS011;51453;47.738;7.420;2022-10-12T08:35:48;24.95;;;10.50;;
64938;SDS011;51453;47.738;7.420;2022-10-12T08:38:14;27.85;;;9.90;;
64938;SDS011;51453;47.738;7.420;2022-10-12T08:40:44;25.67;;;9.95;;
64938;SDS011;51453;47.738;7.420;2022-10-12T08:45:55;27.00;;;10.70;;
64938;SDS011;51453;47.738;7.420;2022-10-12T08:48:24;30.88;;;11.70;;
64938;SDS011;51453;47.738;7.420;2022-10-12T08:51:05;25.35;;;10.82;;
64938;SDS011;51453;47.738;7.420;2022-10-12T08:56:16;26.98;;;10.25;;
64938;SDS011;51453;47.738;7.420;2022-10-12T08:58:44;27.15;;;9.88;;
64938;SDS011;51453;47.738;7.420;2022-10-12T09:01:19;36.00;;;11.02;;
64938;SDS011;51453;47.738;7.420;2022-10-12T09:03:59;24.92;;;10.48;;
64938;SDS011;51453;47.738;7.420;2022-10-12T09:06:39;27.48;;;10.18;;
64938;SDS011;51453;47.738;7.420;2022-10-12T09:14:36;26.80;;;9.93;;
64938;SDS011;51453;47.738;7.420;2022-10-12T09:17:20;35.28;;;10.05;;
64938;SDS011;51453;47.738;7.420;2022-10-12T09:20:04;25.40;;;9.50;;
64938;SDS011;51453;47.738;7.420;2022-10-12T09:22:42;23.42;;;8.77;;
64938;SDS011;51453;47.738;7.420;2022-10-12T09:25:12;29.60;;;9.70;;
64938;SDS011;51453;47.738;7.420;2022-10-12T09:27:39;32.60;;;10.10;;
64938;SDS011;51453;47.738;7.420;2022-10-12T09:30:10;25.10;;;9.75;;
64938;SDS011;51453;47.738;7.420;2022-10-12T09:35:29;30.73;;;10.20;;
64938;SDS011;51453;47.738;7.420;2022-10-12T09:37:54;29.45;;;10.95;;
64938;SDS011;51453;47.738;7.420;2022-10-12T09:40:29;24.23;;;9.30;;
64938;SDS011;51453;47.738;7.420;2022-10-12T09:42:57;23.48;;;9.77;;
64938;SDS011;51453;47.738;7.420;2022-10-12T09:45:24;27.10;;;10.25;;
64938;SDS011;51453;47.738;7.420;2022-10-12T09:53:12;29.00;;;10.73;;
64938;SDS011;51453;47.738;7.420;2022-10-12T09:55:50;29.73;;;10.85;;
64938;SDS011;51453;47.738;7.420;2022-10-12T09:58:18;28.23;;;10.75;;
64938;SDS011;51453;47.738;7.420;2022-10-12T10:00:45;29.20;;;11.10;;
64938;SDS011;51453;47.738;7.420;2022-10-12T10:03:35;31.92;;;11.05;;
64938;SDS011;51453;47.738;7.420;2022-10-12T10:06:01;32.42;;;11.60;;
64938;SDS011;51453;47.738;7.420;2022-10-12T10:08:30;26.02;;;10.27;;
64938;SDS011;51453;47.738;7.420;2022-10-12T10:11:12;34.67;;;10.57;;
64938;SDS011;51453;47.738;7.420;2022-10-12T10:13:43;23.40;;;10.25;;
64938;SDS011;51453;47.738;7.420;2022-10-12T10:16:12;23.55;;;10.80;;
64938;SDS011;51453;47.738;7.420;2022-10-12T10:18:39;32.72;;;11.02;;
64938;SDS011;51453;47.738;7.420;2022-10-12T10:21:08;27.17;;;10.45;;
64938;SDS011;51453;47.738;7.420;2022-10-12T10:23:50;28.83;;;9.77;;
64938;SDS011;51453;47.738;7.420;2022-10-12T10:26:20;22.75;;;9.73;;
64938;SDS011;51453;47.738;7.420;2022-10-12T10:28:48;25.55;;;9.52;;
64938;SDS011;51453;47.738;7.420;2022-10-12T10:31:19;28.60;;;9.60;;
64938;SDS011;51453;47.738;7.420;2022-10-12T10:36:47;28.42;;;10.20;;
64938;SDS011;51453;47.738;7.420;2022-10-12T10:39:25;20.90;;;9.23;;
64938;SDS011;51453;47.738;7.420;2022-10-12T10:42:19;18.15;;;9.57;;
64938;SDS011;51453;47.738;7.420;2022-10-12T10:45:02;23.15;;;9.32;;
64938;SDS011;51453;47.738;7.420;2022-10-12T10:47:40;26.83;;;10.15;;
64938;SDS011;51453;47.738;7.420;2022-10-12T10:53:19;23.60;;;9.73;;
64938;SDS011;51453;47.738;7.420;2022-10-12T10:55:47;31.73;;;9.75;;
64938;SDS011;51453;47.738;7.420;2022-10-12T11:00:48;23.02;;;9.02;;
64938;SDS011;51453;47.738;7.420;2022-10-12T11:05:56;21.83;;;9.15;;
64938;SDS011;51453;47.738;7.420;2022-10-12T11:08:30;20.20;;;8.90;;
64938;SDS011;51453;47.738;7.420;2022-10-12T11:14:20;18.85;;;9.02;;
64938;SDS011;51453;47.738;7.420;2022-10-12T11:16:45;19.92;;;9.20;;
64938;SDS011;51453;47.738;7.420;2022-10-12T11:19:22;19.13;;;8.80;;
64938;SDS011;51453;47.738;7.420;2022-10-12T11:22:02;18.77;;;8.73;;
64938;SDS011;51453;47.738;7.420;2022-10-12T11:24:42;16.92;;;9.35;;
64938;SDS011;51453;47.738;7.420;2022-10-12T11:27:35;20.37;;;9.10;;
64938;SDS011;51453;47.738;7.420;2022-10-12T11:30:03;21.45;;;8.95;;
64938;SDS011;51453;47.738;7.420;2022-10-12T11:32:37;21.83;;;9.30;;
64938;SDS011;51453;47.738;7.420;2022-10-12T11:35:13;18.33;;;9.10;;
64938;SDS011;51453;47.738;7.420;2022-10-12T11:37:42;24.63;;;9.45;;
64938;SDS011;51453;47.738;7.420;2022-10-12T11:40:17;16.77;;;9.45;;
64938;SDS011;51453;47.738;7.420;2022-10-12T11:42:47;17.63;;;8.90;;
64938;SDS011;51453;47.738;7.420;2022-10-12T11:45:21;18.02;;;9.45;;
64938;SDS011;51453;47.738;7.420;2022-10-12T11:47:55;14.30;;;8.93;;
64938;SDS011;51453;47.738;7.420;2022-10-12T11:50:36;18.27;;;8.70;;
64938;SDS011;51453;47.738;7.420;2022-10-12T11:58:26;18.65;;;8.77;;
64938;SDS011;51453;47.738;7.420;2022-10-12T12:00:58;21.05;;;8.63;;
64938;SDS011;51453;47.738;7.420;2022-10-12T12:03:57;20.77;;;8.50;;
64938;SDS011;51453;47.738;7.420;2022-10-12T12:11:43;19.55;;;9.18;;
64938;SDS011;51453;47.738;7.420;2022-10-12T12:19:51;22.45;;;8.07;;
64938;SDS011;51453;47.738;7.420;2022-10-12T12:25:22;17.95;;;8.63;;
64938;SDS011;51453;47.738;7.420;2022-10-12T12:27:57;21.85;;;9.07;;
64938;SDS011;51453;47.738;7.420;2022-10-12T12:30:36;15.73;;;7.88;;
64938;SDS011;51453;47.738;7.420;2022-10-12T12:35:52;23.45;;;10.82;;
64938;SDS011;51453;47.738;7.420;2022-10-12T12:38:25;22.95;;;12.25;;
64938;SDS011;51453;47.738;7.420;2022-10-12T12:43:53;20.13;;;11.23;;
64938;SDS011;51453;47.738;7.420;2022-10-12T12:46:20;20.40;;;11.18;;
64938;SDS011;51453;47.738;7.420;2022-10-12T12:53:44;27.95;;;11.77;;
64938;SDS011;51453;47.738;7.420;2022-10-12T13:07:54;18.27;;;10.52;;
64938;SDS011;51453;47.738;7.420;2022-10-12T13:19:33;16.65;;;11.25;;
64938;SDS011;51453;47.738;7.420;2022-10-12T13:22:12;26.27;;;12.00;;
64938;SDS011;51453;47.738;7.420;2022-10-12T13:24:45;19.13;;;10.93;;
64938;SDS011;51453;47.738;7.420;2022-10-12T13:29:55;15.50;;;10.25;;
64938;SDS011;51453;47.738;7.420;2022-10-12T13:40:39;22.45;;;10.75;;
64938;SDS011;51453;47.738;7.420;2022-10-12T13:43:17;20.83;;;10.55;;
64938;SDS011;51453;47.738;7.420;2022-10-12T13:46:03;20.33;;;10.70;;
64938;SDS011;51453;47.738;7.420;2022-10-12T13:48:30;18.60;;;10.60;;
64938;SDS011;51453;47.738;7.420;2022-10-12T13:51:00;17.67;;;9.60;;
64938;SDS011;51453;47.738;7.420;2022-10-12T13:53:34;23.85;;;10.57;;
64938;SDS011;51453;47.738;7.420;2022-10-12T13:56:03;17.02;;;9.52;;
64938;SDS011;51453;47.738;7.420;2022-10-12T13:58:34;20.13;;;9.98;;
64938;SDS011;51453;47.738;7.420;2022-10-12T14:01:01;17.42;;;10.07;;
64938;SDS011;51453;47.738;7.420;2022-10-12T14:03:34;19.95;;;10.95;;
64938;SDS011;51453;47.738;7.420;2022-10-12T14:06:02;16.20;;;9.85;;
64938;SDS011;51453;47.738;7.420;2022-10-12T14:08:29;23.60;;;10.63;;
64938;SDS011;51453;47.738;7.420;2022-10-12T14:10:57;15.98;;;8.52;;
64938;SDS011;51453;47.738;7.420;2022-10-12T14:13:31;20.02;;;10.40;;
64938;SDS011;51453;47.738;7.420;2022-10-12T14:15:58;21.02;;;9.60;;
64938;SDS011;51453;47.738;7.420;2022-10-12T14:21:19;15.82;;;8.85;;
64938;SDS011;51453;47.738;7.420;2022-10-12T14:23:58;19.10;;;10.23;;
64938;SDS011;51453;47.738;7.420;2022-10-12T14:29:11;17.48;;;9.45;;
64938;SDS011;51453;47.738;7.420;2022-10-12T14:32:07;17.20;;;9.25;;
64938;SDS011;51453;47.738;7.420;2022-10-12T14:35:02;13.48;;;8.02;;
64938;SDS011;51453;47.738;7.420;2022-10-12T14:37:47;18.40;;;9.65;;
64938;SDS011;51453;47.738;7.420;2022-10-12T14:42:53;16.05;;;8.02;;
64938;SDS011;51453;47.738;7.420;2022-10-12T14:45:23;17.38;;;9.07;;
64938;SDS011;51453;47.738;7.420;2022-10-12T14:47:50;14.60;;;7.95;;
64938;SDS011;51453;47.738;7.420;2022-10-12T14:50:17;15.07;;;8.43;;
64938;SDS011;51453;47.738;7.420;2022-10-12T14:52:46;16.75;;;8.73;;
64938;SDS011;51453;47.738;7.420;2022-10-12T14:55:15;18.02;;;8.43;;
64938;SDS011;51453;47.738;7.420;2022-10-12T14:57:43;16.95;;;9.07;;
64938;SDS011;51453;47.738;7.420;2022-10-12T15:00:17;14.48;;;8.77;;
64938;SDS011;51453;47.738;7.420;2022-10-12T15:02:49;21.58;;;9.32;;
64938;SDS011;51453;47.738;7.420;2022-10-12T15:05:16;15.98;;;8.48;;
64938;SDS011;51453;47.738;7.420;2022-10-12T15:07:45;14.30;;;8.50;;
64938;SDS011;51453;47.738;7.420;2022-10-12T15:10:12;17.77;;;8.52;;
64938;SDS011;51453;47.738;7.420;2022-10-12T15:12:38;15.45;;;8.20;;
64938;SDS011;51453;47.738;7.420;2022-10-12T15:15:38;14.43;;;7.68;;
64938;SDS011;51453;47.738;7.420;2022-10-12T15:18:02;13.68;;;7.97;;
64938;SDS011;51453;47.738;7.420;2022-10-12T15:20:29;15.65;;;7.65;;
64938;SDS011;51453;47.738;7.420;2022-10-12T15:22:56;14.77;;;8.10;;
64938;SDS011;51453;47.738;7.420;2022-10-12T15:28:09;16.23;;;8.43;;
64938;SDS011;51453;47.738;7.420;2022-10-12T15:30:35;16.85;;;8.07;;
64938;SDS011;51453;47.738;7.420;2022-10-12T15:33:00;17.55;;;8.88;;
64938;SDS011;51453;47.738;7.420;2022-10-12T15:35:27;15.55;;;8.27;;
64938;SDS011;51453;47.738;7.420;2022-10-12T15:37:55;14.10;;;8.05;;
64938;SDS011;51453;47.738;7.420;2022-10-12T15:40:21;18.00;;;7.68;;
64938;SDS011;51453;47.738;7.420;2022-10-12T15:42:47;15.13;;;7.80;;
64938;SDS011;51453;47.738;7.420;2022-10-12T15:45:15;17.33;;;8.30;;
64938;SDS011;51453;47.738;7.420;2022-10-12T15:47:51;17.33;;;9.00;;
64938;SDS011;51453;47.738;7.420;2022-10-12T15:50:22;18.75;;;8.82;;
64938;SDS011;51453;47.738;7.420;2022-10-12T15:52:52;15.88;;;8.73;;
64938;SDS011;51453;47.738;7.420;2022-10-12T15:55:23;18.98;;;8.85;;
64938;SDS011;51453;47.738;7.420;2022-10-12T15:57:51;16.85;;;8.35;;
64938;SDS011;51453;47.738;7.420;2022-10-12T16:00:22;16.63;;;8.55;;
64938;SDS011;51453;47.738;7.420;2022-10-12T16:02:50;14.32;;;7.65;;
64938;SDS011;51453;47.738;7.420;2022-10-12T16:05:21;13.68;;;8.02;;
64938;SDS011;51453;47.738;7.420;2022-10-12T16:07:51;15.45;;;7.53;;
64938;SDS011;51453;47.738;7.420;2022-10-12T16:10:19;18.13;;;8.23;;
64938;SDS011;51453;47.738;7.420;2022-10-12T16:12:50;15.48;;;7.82;;
64938;SDS011;51453;47.738;7.420;2022-10-12T16:15:21;13.98;;;7.68;;
64938;SDS011;51453;47.738;7.420;2022-10-12T16:17:53;13.05;;;7.70;;
64938;SDS011;51453;47.738;7.420;2022-10-12T16:20:20;11.15;;;6.85;;
64938;SDS011;51453;47.738;7.420;2022-10-12T16:22:46;10.65;;;7.40;;
64938;SDS011;51453;47.738;7.420;2022-10-12T16:25:14;12.30;;;7.32;;
64938;SDS011;51453;47.738;7.420;2022-10-12T16:27:41;16.90;;;7.93;;
64938;SDS011;51453;47.738;7.420;2022-10-12T16:30:08;17.30;;;8.38;;
64938;SDS011;51453;47.738;7.420;2022-10-12T16:32:34;11.32;;;7.43;;
64938;SDS011;51453;47.738;7.420;2022-10-12T16:35:00;20.70;;;9.20;;
64938;SDS011;51453;47.738;7.420;2022-10-12T16:37:26;23.45;;;10.15;;
64938;SDS011;51453;47.738;7.420;2022-10-12T16:39:52;28.70;;;14.40;;
64938;SDS011;51453;47.738;7.420;2022-10-12T16:42:18;22.85;;;13.10;;
64938;SDS011;51453;47.738;7.420;2022-10-12T16:44:44;21.90;;;13.48;;
64938;SDS011;51453;47.738;7.420;2022-10-12T16:47:10;18.75;;;12.57;;
64938;SDS011;51453;47.738;7.420;2022-10-12T16:49:36;20.00;;;12.75;;
64938;SDS011;51453;47.738;7.420;2022-10-12T16:52:02;24.83;;;13.02;;
64938;SDS011;51453;47.738;7.420;2022-10-12T16:54:28;22.30;;;12.27;;
64938;SDS011;51453;47.738;7.420;2022-10-12T16:56:55;19.38;;;10.70;;
64938;SDS011;51453;47.738;7.420;2022-10-12T16:59:21;16.88;;;9.75;;
64938;SDS011;51453;47.738;7.420;2022-10-12T17:01:47;19.55;;;9.52;;
64938;SDS011;51453;47.738;7.420;2022-10-12T17:04:12;19.17;;;9.27;;
64938;SDS011;51453;47.738;7.420;2022-10-12T17:06:38;16.50;;;10.35;;